Latest Coastal Weather Observations for Cairns

IDQ60701

Issued at 11:25 am EST Thursday 31 July 2014 (issued every 10 minutes, with the page automatically refreshed every 10 minutes)

About coastal observations | Map of coastal stations | Coastal observations for QLD | Marine services | Other Formats
Station Details ID: 031011 Name: CAIRNS AERO Lat: -16.87 Lon: 145.75 Height: 2.22 m
Data from the previous 72 hours. | See also: Recent months at Cairns
Date/Time
EST
Temp

°C
Wind Pressure Rain
since 9am
mm
Weather Cloud Vis
km
Sea
Height
m
Swell
Dir
 
Speed
knots
Gust
knots
hPa Trend Height
m
Period
s
Dir
31/11:00am 24.9 SSE 10 13 1018.2 - 0.0 - Mostly clear 10 - - - -
31/10:30am 25.1 SSE 9 11 1018.4 - 0.0 - Mostly clear 10 - - - -
31/10:00am 24.6 SSE 8 14 1018.6 - 0.0 - Mostly clear 10 - - - -
31/09:30am 23.7 S 9 12 1018.7 - 0.0 - Mostly clear 10 - - - -
31/09:00am 24.1 S 8 13 1018.6 F 0.0 Fine Partly cloudy 30 - - - -
31/08:30am 23.1 SSE 8 11 1018.5 - 0.0 - Mostly clear 10 - - - -
31/08:00am 22.2 SE 8 10 1018.4 - 0.0 - Mostly clear 10 - - - -
31/07:30am 21.0 SSE 6 9 1018.1 - 0.0 - Mostly clear 10 - - - -
31/07:00am 19.3 SE 9 11 1018.0 - 0.0 - Mostly clear 10 - - - -
31/06:30am 19.4 SE 8 10 1017.8 - 0.0 - Mostly clear 10 - - - -
31/06:00am 19.5 SE 5 9 1017.5 S 0.0 Fine Mostly clear 30 - - - -
31/05:30am 19.5 SE 8 10 1017.4 - 0.0 - Mostly clear 10 - - - -
31/05:00am 19.5 SE 7 9 1017.4 - 0.0 - Mostly clear 10 - - - -
31/04:30am 20.1 SE 7 9 1017.3 - 0.0 - Mostly clear 10 - - - -
31/04:00am 21.1 S 8 13 1017.3 - 0.0 - Mostly clear 10 - - - -
31/03:30am 20.8 S 11 16 1017.2 - 0.0 - Mostly clear 10 - - - -
31/03:00am 20.4 S 12 17 1017.4 - 0.0 - Cloudy 10 - - - -
31/02:30am 20.2 S 12 16 1017.7 - 0.0 - Mostly clear 10 - - - -
31/02:00am 20.9 S 10 14 1017.7 - 0.0 - Mostly clear 10 - - - -
31/01:30am 20.0 SSE 8 11 1017.9 - 0.0 - Mostly clear 10 - - - -
31/01:00am 21.5 S 7 9 1018.1 - 0.0 - Mostly clear 10 - - - -
31/12:30am 20.9 S 8 11 1018.4 - 0.0 - Mostly clear 10 - - - -
31/12:00am 21.5 S 8 14 1018.3 - 0.0 - Mostly cloudy 10 - - - -
 
Date/Time
EST
Temp

°C
Wind Pressure Rain
since 9am
mm
Weather Cloud Vis
km
Sea
Height
m
Swell
Dir
 
Speed
knots
Gust
knots
hPa Trend Height
m
Period
s
Dir
30/11:30pm 20.4 SE 8 9 1018.6 - 0.0 - Mostly clear 10 - - - -
30/11:00pm 20.8 S 10 14 1018.7 - 0.0 - Mostly clear 10 - - - -
30/10:30pm 21.2 S 8 12 1018.8 - 0.0 - Mostly clear 10 - - - -
30/10:00pm 21.6 S 7 15 1018.9 - 0.0 - Mostly clear 10 - - - -
30/09:30pm 21.5 S 11 15 1019.0 - 0.0 - Mostly clear 10 - - - -
30/09:00pm 20.5 S 9 17 1018.9 - 0.0 - Cloudy 10 - - - -
30/08:30pm 20.7 S 10 15 1018.8 - 0.0 - Mostly clear 10 - - - -
30/08:00pm 20.7 S 12 17 1018.5 - 0.0 - Mostly clear 10 - - - -
30/07:30pm 21.3 S 10 15 1018.1 - 0.0 - Mostly clear 10 - - - -
30/07:00pm 22.0 S 7 10 1017.8 - 0.0 - Mostly clear 10 - - - -
30/06:30pm 22.2 S 6 8 1017.4 - 0.0 - Mostly clear 10 - - - -
30/06:00pm 22.2 S 6 10 1017.2 - 0.0 - Mostly clear 10 - - - -
30/05:30pm 23.7 SSE 9 13 1017.2 - 0.0 - Mostly clear 10 - - - -
30/05:00pm 24.1 SE 9 14 1017.1 - 0.0 - Mostly clear 10 - - - -
30/04:30pm 24.6 SE 7 12 1016.9 - 0.0 - Mostly clear 10 - - - -
30/04:00pm 24.7 SE 9 12 1016.8 - 0.0 - Mostly clear 10 - - - -
30/03:30pm 26.0 SE 10 16 1016.8 - 0.0 - Mostly clear 10 - - - -
30/03:00pm 25.5 SE 14 18 1016.8 S 0.0 Fine Partly cloudy 30 - - - -
30/02:30pm 26.0 ESE 14 17 1017.0 - 0.0 - Mostly clear 10 - - - -
30/02:00pm 25.9 SE 12 17 1017.3 - 0.0 - Mostly clear 10 - - - -
30/01:30pm 25.8 SE 10 15 1017.6 - 0.0 - Mostly clear 10 - - - -
30/01:00pm 25.1 SE 13 18 1018.1 - 0.0 - Mostly clear 10 - - - -
30/12:30pm 25.4 SSE 13 18 1018.4 - 0.0 - Mostly clear 10 - - - -
30/12:00pm 24.1 S 9 13 1018.9 F 0.0 Fine Mostly cloudy 30 - - - -
30/11:30am 24.2 SE 12 16 1019.3 - 0.0 - Mostly clear 10 - - - -
30/11:00am 23.0 SE 11 16 1019.6 - 0.0 - Mostly clear 10 - - - -
30/10:30am 24.0 SSE 9 15 1019.9 - 0.0 - Mostly clear 10 - - - -
30/10:00am 23.9 SSE 11 16 1020.0 - 0.0 - Mostly clear 10 - - - -
30/09:30am 23.4 S 9 14 1020.0 - 0.0 - Mostly clear 10 - - - -
30/09:00am 22.2 SSE 10 14 1019.9 F 0.4 Fine Partly cloudy 30 - - - -
30/08:30am 20.1 E 10 14 1019.9 - - - Mostly clear 10 - - - -
30/08:00am 19.2 ESE 7 10 1019.8 - - - Mostly clear 10 - - - -
30/07:30am 19.8 SSE 7 10 1019.6 - - - Mostly clear 10 - - - -
30/07:00am 19.9 S 9 14 1019.4 - - - Mostly clear 10 - - - -
30/06:30am 19.2 S 12 18 1019.3 - - Showers Mostly clear 4 - - - -
30/06:24am 19.5 S 13 18 1019.1 - - Showers Partly cloudy 5 - - - -
30/06:00am 19.8 SSE 9 13 1018.5 R - Distant precip. Partly cloudy 15 - - - -
30/05:30am 18.9 SSE 9 11 1018.4 - - - Mostly clear 10 - - - -
30/05:00am 18.3 ESE 10 12 1018.4 - - - Mostly clear 10 - - - -
30/04:30am 19.0 SE 9 11 1018.2 - - - Mostly clear 10 - - - -
30/04:00am 20.4 S 7 11 1018.1 - - - Mostly clear 10 - - - -
30/03:30am 20.8 S 9 14 1018.2 - - - Mostly clear 10 - - - -
30/03:00am 20.9 SSE 7 11 1018.2 - - - Cloudy 10 - - - -
30/02:30am 20.0 SE 9 11 1018.6 - - - Mostly clear 10 - - - -
30/02:00am 20.5 S 8 12 1018.8 - - - Mostly clear 10 - - - -
30/01:30am 20.8 S 8 12 1019.2 - - - Mostly clear 10 - - - -
30/01:00am 19.4 SSE 5 7 1019.6 - - - Mostly clear 10 - - - -
30/12:30am 19.4 ESE 7 9 1019.8 - - - Mostly clear 10 - - - -
30/12:00am 19.2 SE 8 10 1019.9 - - - Cloudy 10 - - - -
 
Date/Time
EST
Temp

°C
Wind Pressure Rain
since 9am
mm
Weather Cloud Vis
km
Sea
Height
m
Swell
Dir
 
Speed
knots
Gust
knots
hPa Trend Height
m
Period
s
Dir
29/11:30pm 20.1 SSE 8 11 1019.9 - - - Mostly clear 10 - - - -
29/11:00pm 19.5 SE 7 10 1020.0 - - - Mostly clear 10 - - - -
29/10:30pm 18.2 ESE 9 11 1020.1 - - - Mostly clear 10 - - - -
29/10:00pm 18.6 SE 9 11 1020.1 - - - Mostly clear 10 - - - -
29/09:30pm 20.8 S 8 12 1020.0 - - - Mostly clear 10 - - - -
29/09:00pm 20.9 S 10 16 1019.7 - - - Mostly clear 10 - - - -
29/08:30pm 20.9 S 9 14 1019.6 - - - Mostly clear 10 - - - -
29/08:00pm 21.1 S 8 12 1019.5 - - - Mostly clear 10 - - - -
29/07:30pm 20.5 S 6 8 1019.4 - - - Mostly clear 10 - - - -
29/07:00pm 20.3 S 4 6 1019.0 - - - Mostly clear 10 - - - -
29/06:30pm 20.6 SSE 4 6 1018.7 - - - Mostly clear 10 - - - -
29/06:00pm 21.9 S 6 8 1018.5 - - - Mostly clear 10 - - - -
29/05:30pm 23.2 SE 10 13 1018.3 - - - Mostly clear 10 - - - -
29/05:00pm 24.1 SE 13 16 1018.0 - - - Mostly clear 10 - - - -
29/04:30pm 24.9 ESE 10 14 1017.8 - - - Mostly clear 10 - - - -
29/04:00pm 24.9 ESE 11 15 1017.7 - - - Mostly clear 10 - - - -
29/03:30pm 25.2 ESE 12 16 1017.7 - - - Mostly clear 10 - - - -
29/03:00pm 26.3 ESE 13 16 1017.7 F 0.0 Fine Mostly clear 30 - - - -
29/02:30pm 25.5 ESE 13 16 1018.1 - - - Mostly clear 10 - - - -
29/02:00pm 25.5 ESE 14 17 1018.5 - - - Mostly clear 10 - - - -
29/01:30pm 26.0 SE 14 17 1018.9 - - - Mostly clear 10 - - - -
29/01:00pm 25.4 ESE 14 17 1019.3 - - - Mostly clear 10 - - - -
29/12:30pm 25.8 ESE 14 18 1019.6 - - - Mostly clear 10 - - - -
29/12:00pm 25.4 SE 14 18 1019.9 F - Fine Mostly clear 30 - - - -
29/11:30am 26.2 SE 13 18 1020.3 - - - Mostly clear 10 - - - -
29/11:00am 25.6 ESE 14 16 1020.6 - - - Mostly clear 10 - - - -
29/10:36am 25.3 SE 16 27 1020.8 - 0.0 - Mostly clear 10 - - - -
29/10:30am 25.0 SSE 12 19 1020.9 - 0.0 - Mostly clear 10 - - - -
29/10:00am 24.5 SSE 9 14 1021.2 - 0.0 - Mostly clear 10 - - - -
29/09:30am 23.5 SSE 10 15 1021.2 - 0.0 - Mostly clear 10 - - - -
29/09:00am 23.3 S 10 16 1020.9 R 0.6 Fine Partly cloudy 30 - - - -
29/08:30am 22.4 S 8 13 1020.8 - 0.6 - Mostly clear 10 - - - -
29/08:00am 21.1 S 11 15 1020.5 - 0.6 - Mostly clear 10 - - - -
29/07:30am 20.9 S 10 17 1020.1 - 0.6 - Mostly clear 10 - - - -
29/07:00am 20.5 S 10 15 1019.8 - 0.6 - Mostly clear 10 - - - -
29/06:30am 20.1 S 9 16 1019.5 - 0.6 - Mostly clear 10 - - - -
29/06:00am 20.1 S 10 15 1019.1 - 0.6 - Mostly clear 10 - - - -
29/05:30am 20.0 S 11 16 1018.8 - 0.6 - Mostly clear 10 - - - -
29/05:00am 19.6 SE 9 15 1018.5 - 0.6 - Mostly clear 10 - - - -
29/04:30am 18.6 SE 9 11 1018.5 - 0.6 - Mostly clear 10 - - - -
29/04:00am 18.2 SE 10 12 1018.5 - 0.6 - Mostly clear 10 - - - -
29/03:30am 18.5 ESE 9 11 1018.6 - 0.6 - Mostly clear 10 - - - -
29/03:00am 20.7 S 10 15 1018.5 - 0.6 - Mostly clear 10 - - - -
29/02:30am 20.5 S 10 14 1018.8 - 0.6 - Mostly clear 10 - - - -
29/02:00am 19.5 SSE 6 8 1019.2 - 0.6 - Mostly clear 10 - - - -
29/01:30am 19.1 SE 10 12 1019.6 - 0.6 Showers Mostly clear 10 - - - -
29/01:00am 18.9 SE 8 10 1019.7 - 0.6 - Mostly clear 10 - - - -
29/12:30am 20.7 S 6 9 1019.8 - 0.6 - Mostly clear 10 - - - -
29/12:00am 20.7 S 8 12 1019.7 - 0.6 - Mostly clear 10 - - - -
 
Date/Time
EST
Temp

°C
Wind Pressure Rain
since 9am
mm
Weather Cloud Vis
km
Sea
Height
m
Swell
Dir
 
Speed
knots
Gust
knots
hPa Trend Height
m
Period
s
Dir
28/11:30pm 21.0 S 9 14 1019.9 - 0.6 - Mostly clear 10 - - - -
28/11:00pm 20.8 S 9 13 1020.0 - 0.6 - Mostly clear 10 - - - -
28/10:30pm 21.0 S 9 14 1019.9 - 0.6 - Mostly clear 10 - - - -
28/10:00pm 20.8 S 8 13 1020.0 - 0.6 - Mostly clear 10 - - - -
28/09:30pm 20.9 S 9 14 1020.1 - 0.6 - Mostly clear 10 - - - -
28/09:00pm 21.2 S 9 14 1019.9 - 0.6 - Mostly cloudy 10 - - - -
28/08:30pm 20.8 S 11 16 1019.9 - 0.6 - Mostly clear 10 - - - -
28/08:00pm 20.9 S 11 16 1019.6 - 0.6 - Mostly clear 10 - - - -
28/07:30pm 20.7 S 12 17 1019.4 - 0.6 - Mostly clear 10 - - - -
28/07:00pm 20.9 S 10 15 1019.1 - 0.6 - Mostly clear 10 - - - -
28/06:30pm 21.1 S 10 15 1018.8 - 0.6 - Mostly clear 10 - - - -
28/06:00pm 21.2 S 11 16 1018.4 - 0.6 - Cloudy 10 - - - -
28/05:30pm 21.5 S 8 14 1018.2 - 0.6 - Mostly clear 10 - - - -
28/05:00pm 21.2 S 6 9 1018.2 - 0.6 - Partly cloudy 10 - - - -
28/04:30pm 21.6 S 10 14 1018.1 - 0.2 - Mostly clear 10 - - - -
28/04:21pm 21.5 S 10 14 1018.0 - 0.2 - Mostly clear 10 - - - -
28/04:10pm 21.7 S 10 15 1018.1 - 0.2 Showers Mostly clear 6 - - - -
28/04:00pm 21.8 S 10 13 1018.1 - 0.2 - Partly cloudy 10 - - - -
28/03:30pm 23.0 SSW 7 12 1017.9 - 0.2 - Mostly clear 10 - - - -
28/03:00pm 22.7 S 8 12 1018.1 R 0.2 Fine Mostly cloudy 30 - - - -
28/02:30pm 22.2 S 8 13 1018.4 - 0.2 - Mostly clear 10 - - - -
28/02:00pm 22.0 SSE 9 13 1018.8 - 0.2 - Mostly clear 10 - - - -
28/01:30pm 21.8 SE 13 16 1019.0 - 0.2 - Mostly clear 10 - - - -
28/01:23pm 22.0 SSE 13 17 1019.2 - 0.2 - Mostly clear 10 - - - -
28/01:00pm 22.0 SE 13 18 1019.5 - 0.2 Showers Mostly clear 6 - - - -
28/12:46pm 21.9 SSE 12 17 1019.6 - 0.2 - Mostly clear 10 - - - -
28/12:30pm 21.9 SSE 13 17 1019.8 - 0.0 Showers Mostly clear 3 - - - -
28/12:12pm 22.6 SSE 13 18 1019.8 - 0.0 Showers Mostly clear 5 - - - -
28/12:00pm 23.3 SSE 12 18 1019.8 F 0.0 Distant precip. Mostly cloudy 12 - - - -
28/11:30am 22.4 S 13 19 1020.5 - 0.0 - Mostly clear 10 - - - -

Other Formats:

Comma delimited format used in spreadsheet applications
http://www.bom.gov.au/fwo/IDQ60701/IDQ60701.94287.axf

JavaScript Object Notation format (JSON) in row-major order
http://www.bom.gov.au/fwo/IDQ60701/IDQ60701.94287.json